createdAt,value
2022-08-03T00:03:53.044Z,1.75
2022-08-03T00:08:59.136Z,1.45
2022-08-03T00:14:03.728Z,2.33
2022-08-03T00:19:08.949Z,1.73
2022-08-03T00:24:14.426Z,1.63
2022-08-03T00:29:18.558Z,1.73
2022-08-03T00:34:32.644Z,1.88
2022-08-03T00:39:48.235Z,1.70
2022-08-03T00:44:52.328Z,1.73
2022-08-03T00:49:56.930Z,1.63
2022-08-03T00:55:02.479Z,2.00
2022-08-03T01:00:08.915Z,1.70
2022-08-03T01:05:13.814Z,2.22
2022-08-03T01:10:29.804Z,1.35
2022-08-03T01:15:40.449Z,1.88
2022-08-03T01:20:48.493Z,1.85
2022-08-03T01:26:07.264Z,1.75
2022-08-03T01:31:15.237Z,2.10
2022-08-03T01:36:25.745Z,1.90
2022-08-03T01:41:34.593Z,1.83
2022-08-03T01:46:47.741Z,1.70
2022-08-03T01:51:58.444Z,1.90
2022-08-03T01:57:10.899Z,1.80
2022-08-03T02:02:33.672Z,1.77
2022-08-03T02:07:41.065Z,1.75
2022-08-03T02:12:51.076Z,2.03
2022-08-03T02:17:59.069Z,2.10
2022-08-03T02:23:03.515Z,1.90
2022-08-03T02:28:10.172Z,2.10
2022-08-03T02:33:21.336Z,2.50
2022-08-03T02:38:29.960Z,1.92
2022-08-03T02:43:41.277Z,2.08
2022-08-03T02:49:40.676Z,2.10
2022-08-03T02:54:29.635Z,1.80
2022-08-03T02:59:34.370Z,1.63
2022-08-03T03:04:43.140Z,1.67
2022-08-03T03:10:05.871Z,1.77
2022-08-03T03:15:10.782Z,2.25
2022-08-03T03:20:29.471Z,2.30
2022-08-03T03:30:38.785Z,2.85
2022-08-03T03:35:45.896Z,2.20
2022-08-03T03:40:50.438Z,2.45
2022-08-03T03:45:56.090Z,2.08
2022-08-03T03:51:02.445Z,2.40
2022-08-03T03:56:06.608Z,2.25
2022-08-03T04:01:11.023Z,2.13
2022-08-03T04:06:34.256Z,2.15
2022-08-03T04:11:42.145Z,2.00
2022-08-03T04:16:50.173Z,2.30
2022-08-03T04:21:59.374Z,2.33
2022-08-03T04:32:11.826Z,2.47
2022-08-03T04:37:24.936Z,2.05
2022-08-03T04:42:29.969Z,2.47
2022-08-03T04:47:35.456Z,2.53
2022-08-03T04:52:41.208Z,2.38
2022-08-03T04:57:45.424Z,3.55
2022-08-03T05:02:52.301Z,2.58
2022-08-03T05:07:58.318Z,2.53
2022-08-03T05:13:04.961Z,2.28
2022-08-03T05:18:13.670Z,2.10
2022-08-03T05:23:20.147Z,2.20
2022-08-03T05:28:24.548Z,2.60
2022-08-03T05:33:29.194Z,4.55
2022-08-03T05:38:35.570Z,2.65
2022-08-03T05:43:40.223Z,2.55
2022-08-03T05:48:45.133Z,2.78
2022-08-03T05:53:50.835Z,2.33
2022-08-03T05:58:55.078Z,2.28
2022-08-03T06:03:59.232Z,2.10
2022-08-03T06:09:05.129Z,2.28
2022-08-03T06:14:10.415Z,2.00
2022-08-03T06:19:14.545Z,1.95
2022-08-03T06:24:20.086Z,2.25
2022-08-03T06:29:29.235Z,2.30
2022-08-03T06:34:35.804Z,2.42
2022-08-03T06:39:41.362Z,2.05
2022-08-03T06:44:46.561Z,2.17
2022-08-03T06:50:14.286Z,2.20
2022-08-03T06:55:18.102Z,2.13
2022-08-03T07:00:22.926Z,1.83
2022-08-03T07:05:27.111Z,1.92
2022-08-03T07:10:32.589Z,2.47
2022-08-03T07:15:53.692Z,2.00
2022-08-03T07:20:59.527Z,2.05
2022-08-03T07:26:05.292Z,2.28
2022-08-03T07:31:09.394Z,2.50
2022-08-03T07:36:13.575Z,1.95
2022-08-03T07:41:19.200Z,2.15
2022-08-03T07:46:23.237Z,1.92
2022-08-03T07:51:30.737Z,1.85
2022-08-03T07:56:36.157Z,2.83
2022-08-03T08:01:40.308Z,2.30
2022-08-03T08:06:44.436Z,2.13
2022-08-03T08:11:51.356Z,1.80
2022-08-03T08:16:55.611Z,1.88
2022-08-03T08:22:02.404Z,1.35
2022-08-03T08:27:13.271Z,1.90
2022-08-03T08:32:17.621Z,1.65
2022-08-03T08:37:23.222Z,1.77
2022-08-03T08:42:29.601Z,1.75
2022-08-03T08:47:51.181Z,1.60
2022-08-03T08:52:59.934Z,1.80
2022-08-03T08:58:07.665Z,1.30
2022-08-03T09:03:11.939Z,1.67
2022-08-03T09:08:26.996Z,1.73
2022-08-03T09:13:34.382Z,2.03
2022-08-03T09:18:42.865Z,2.38
2022-08-03T09:24:01.668Z,2.15
2022-08-03T09:29:15.349Z,1.77
2022-08-03T09:34:19.669Z,1.25
2022-08-03T09:39:40.361Z,1.50
2022-08-03T09:44:49.687Z,1.42
2022-08-03T09:50:01.600Z,2.20
2022-08-03T09:56:30.958Z,1.48
2022-08-03T10:05:59.933Z,1.40
2022-08-03T10:11:04.249Z,1.42
2022-08-03T10:16:23.955Z,1.50
2022-08-03T10:21:33.342Z,1.58
2022-08-03T10:26:49.494Z,1.50
2022-08-03T10:31:58.833Z,1.20
2022-08-03T10:37:10.050Z,1.50
2022-08-03T10:42:14.826Z,1.63
2022-08-03T10:47:21.049Z,1.77
2022-08-03T10:52:32.518Z,1.80
2022-08-03T10:57:49.652Z,1.73
2022-08-03T11:03:07.837Z,1.52
2022-08-03T11:08:36.136Z,1.30
2022-08-03T11:13:59.177Z,1.52
2022-08-03T11:19:06.263Z,1.60
2022-08-03T11:24:10.480Z,1.48
2022-08-03T11:29:31.439Z,1.27
2022-08-03T11:35:10.731Z,1.23
2022-08-03T11:40:35.295Z,1.38
2022-08-03T11:45:39.934Z,1.40
2022-08-03T11:50:46.532Z,1.45
2022-08-03T11:55:50.521Z,1.38
2022-08-03T12:01:04.284Z,1.40
2022-08-03T12:06:13.139Z,1.15
2022-08-03T12:11:18.674Z,1.67
2022-08-03T12:16:23.992Z,1.48
2022-08-03T12:21:30.962Z,1.65
2022-08-03T12:26:58.093Z,1.42
2022-08-03T12:37:19.095Z,1.75
2022-08-03T12:42:32.090Z,1.67
2022-08-03T12:47:51.817Z,1.40
2022-08-03T12:52:58.760Z,1.90
2022-08-03T12:58:03.311Z,1.58
2022-08-03T13:08:35.632Z,2.20
2022-08-03T13:13:40.422Z,1.92
2022-08-03T13:18:46.597Z,1.33
2022-08-03T13:23:53.753Z,1.60
2022-08-03T13:28:57.799Z,1.42
2022-08-03T13:34:01.919Z,1.85
2022-08-03T13:39:09.205Z,1.33
2022-08-03T13:44:29.810Z,1.30
2022-08-03T13:49:34.173Z,1.50
2022-08-03T13:54:39.646Z,1.40
2022-08-03T13:59:51.135Z,1.55
2022-08-03T14:04:55.755Z,1.60
2022-08-03T14:10:01.863Z,1.75
2022-08-03T14:15:10.164Z,1.85
2022-08-03T14:20:36.645Z,1.58
2022-08-03T14:25:44.486Z,2.20
2022-08-03T14:30:57.046Z,1.75
2022-08-03T14:36:02.105Z,2.13
2022-08-03T14:41:12.234Z,1.63
2022-08-03T14:46:24.682Z,1.80
2022-08-03T14:51:29.949Z,1.50
2022-08-03T14:56:37.705Z,1.77
2022-08-03T15:02:04.342Z,1.55
2022-08-03T15:07:06.443Z,1.83
2022-08-03T15:12:12.581Z,1.48
2022-08-03T15:17:16.602Z,1.73
2022-08-03T15:22:25.332Z,1.60
2022-08-03T15:28:02.754Z,1.63
2022-08-03T15:33:04.741Z,1.60
2022-08-03T15:38:09.794Z,1.50
2022-08-03T15:43:15.381Z,2.35
2022-08-03T15:48:20.249Z,1.88
2022-08-03T15:53:31.116Z,1.88
2022-08-03T15:59:03.386Z,1.80
2022-08-03T16:04:02.868Z,1.70
2022-08-03T16:09:22.839Z,1.65
2022-08-03T16:14:33.312Z,1.95
2022-08-03T16:19:42.047Z,2.05
2022-08-03T16:24:47.384Z,1.45
2022-08-03T16:29:53.092Z,1.90
2022-08-03T16:34:57.145Z,1.33
2022-08-03T16:40:02.988Z,2.08
2022-08-03T16:45:11.519Z,2.13
2022-08-03T16:50:19.857Z,1.80
2022-08-03T16:55:51.611Z,1.50
2022-08-03T17:00:51.131Z,1.92
2022-08-03T17:05:59.567Z,2.25
2022-08-03T17:11:05.798Z,2.50
2022-08-03T17:16:15.286Z,2.28
2022-08-03T17:21:29.514Z,2.83
2022-08-03T17:26:40.958Z,2.40
2022-08-03T17:31:49.998Z,2.47
2022-08-03T17:37:50.284Z,2.67
2022-08-03T17:42:31.187Z,2.95
2022-08-03T17:47:42.151Z,2.70
2022-08-03T17:52:50.638Z,2.55
2022-08-03T18:03:58.656Z,3.13
2022-08-03T18:09:05.092Z,2.92
2022-08-03T18:14:38.796Z,4.13
2022-08-03T18:25:13.200Z,3.03
2022-08-03T18:30:17.591Z,3.60
2022-08-03T18:35:24.756Z,4.07
2022-08-03T18:40:30.999Z,3.70
2022-08-03T18:45:57.351Z,3.75
2022-08-03T18:51:08.551Z,3.75
2022-08-03T18:56:24.742Z,3.42
2022-08-03T19:01:57.980Z,3.50
2022-08-03T19:07:04.728Z,2.67
2022-08-03T19:12:28.209Z,2.75
2022-08-03T19:17:38.464Z,3.25
2022-08-03T19:22:47.265Z,3.25
2022-08-03T19:32:55.916Z,3.33
2022-08-03T19:38:02.640Z,2.83
2022-08-03T19:43:17.915Z,3.33
2022-08-03T19:48:30.607Z,2.53
2022-08-03T19:53:42.826Z,2.45
2022-08-03T19:58:53.326Z,2.90
2022-08-03T20:03:58.599Z,2.60
2022-08-03T20:09:06.344Z,2.42
2022-08-03T20:14:13.223Z,2.30
2022-08-03T20:19:24.858Z,2.30
2022-08-03T20:24:42.110Z,2.17
2022-08-03T20:30:06.197Z,2.45
2022-08-03T20:35:12.008Z,2.45
2022-08-03T20:40:17.720Z,2.15
2022-08-03T20:46:00.599Z,1.88
2022-08-03T20:50:47.965Z,1.90
2022-08-03T20:56:02.218Z,1.98
2022-08-03T21:01:06.938Z,2.08
2022-08-03T21:06:16.473Z,2.20
2022-08-03T21:11:41.459Z,1.88
2022-08-03T21:12:57.649Z,3.33
2022-08-03T21:13:04.758Z,2.67
2022-08-03T21:16:48.265Z,2.10
2022-08-03T21:21:53.159Z,2.13
2022-08-03T21:26:59.549Z,2.40
2022-08-03T21:32:03.956Z,2.40
2022-08-03T21:37:14.345Z,2.20
2022-08-03T21:42:23.893Z,1.90
2022-08-03T21:47:28.266Z,2.13
2022-08-03T21:52:34.711Z,2.60
2022-08-03T21:57:42.313Z,2.30
2022-08-03T22:02:54.417Z,2.25
2022-08-03T22:08:00.621Z,2.63
2022-08-03T22:13:06.080Z,2.22
2022-08-03T22:18:10.866Z,2.30
2022-08-03T22:23:18.383Z,2.55
2022-08-03T22:28:31.036Z,2.40
2022-08-03T22:33:36.230Z,2.22
2022-08-03T22:38:40.872Z,2.60
2022-08-03T22:43:46.409Z,2.20
2022-08-03T22:48:52.972Z,2.50
2022-08-03T22:53:57.569Z,2.15
2022-08-03T22:59:41.265Z,2.30
2022-08-03T23:04:30.248Z,1.92
2022-08-03T23:09:35.944Z,2.63
2022-08-03T23:14:45.222Z,2.20
2022-08-03T23:19:52.258Z,2.60
2022-08-03T23:24:58.425Z,2.45
2022-08-03T23:30:03.990Z,2.17
2022-08-03T23:36:27.552Z,2.42
2022-08-03T23:40:51.308Z,2.38
2022-08-03T23:46:00.609Z,2.25
2022-08-03T23:51:14.524Z,2.33
2022-08-03T23:56:25.538Z,2.05
